Bryan's Hourly Summary for Sunday, May 13, 2018
Hour Temp
(f)
RH
(%)
Solar Rad.
(MJ/m2)
Rainfall
(in)
Wind
(mph)
5/13/2018 12:00 AM 77 73 0 0 6.69
5/13/2018 1:00 AM 75 80 0 0 6.01
5/13/2018 2:00 AM 74 85 0 0 5.66
5/13/2018 3:00 AM 74 88 0 0 4.75
5/13/2018 4:00 AM 73 89 0 0 3.38
5/13/2018 5:00 AM 72 92 0 0 4.1
5/13/2018 6:00 AM 72 91 0 0 4.76
5/13/2018 7:00 AM 72 90 0.01 0 4.54
5/13/2018 8:00 AM 73 90 0.21 0 3.46
5/13/2018 9:00 AM 75 84 0.54 0 4.57
5/13/2018 10:00 AM 77 71 1.28 0 5.6
5/13/2018 11:00 AM 79 65 1.68 0 6.17
5/13/2018 12:00 PM 81 60 2.14 0 5.42
5/13/2018 1:00 PM 83 55 2.74 0 5.54
5/13/2018 2:00 PM 85 48 3.1 0 5.51
5/13/2018 3:00 PM 87 46 2.69 0 6.45
5/13/2018 4:00 PM 88 43 2.8 0 6.79
5/13/2018 5:00 PM 89 39 2.5 0 6.83
5/13/2018 6:00 PM 89 39 1.65 0 6.46
5/13/2018 7:00 PM 88 41 1.04 0 5.64
5/13/2018 8:00 PM 86 44 0.3 0 5.94
5/13/2018 9:00 PM 83 58 0.01 0 6.63
5/13/2018 10:00 PM 82 62 0 0 7.53
5/13/2018 11:00 PM 80 65 0 0 7
Data Summary 79 66 22.69 0.00 5.64